Terminal Aerodrome Forecast
Issued by NWS Spokane, WA

Home | Current Version | Previous Version | Text Only | Print | Product List | Glossary On
Versions: 1 2 3 4 5 6 7 8 9 10 11 12 13 14 15 16 17 18 19 20 21 22 23 24 25 26 27 28 29 30 31 32 33
000
FTUS46 KOTX 280540
TAFGEG
TAF
KGEG 280540Z 2806/2906 20009KT P6SM -SHRA VCTS SCT050 BKN080CB
      OVC100
     FM280900 21022G32KT P6SM -SHRA FEW020 BKN040 OVC060
     FM281100 23025G40KT P6SM SHRA BKN020 OVC040
     FM281300 23025G40KT P6SM FEW020 SCT080
     FM282100 24021G29KT P6SM SCT045
     FM290200 21010KT P6SM FEW250=

USA.gov is the U.S. government's official web portal to all federal, state and local government web resources and services.